Time;durP1;ratioP1;P1;durP2;ratioP2;P2;SDS_P1;SDS_P2;PMS_P1;PMS_P2;Temp;Humidity;BMP_temperature;BMP_pressure;BME280_temperature;BME280_humidity;BME280_pressure;Samples;Min_cycle;Max_cycle;Signal;HPM_P1;HPM_P2
2022/05/09 00:00:37;;;;;;;11.57;3.80;;;;;;;13.58;50.19;102640.50;5096130;28;20031;-62
2022/05/09 00:03:04;;;;;;;13.10;3.67;;;;;;;13.56;50.12;102640.44;5095957;28;20020;-62
2022/05/09 00:05:29;;;;;;;11.18;3.70;;;;;;;13.57;50.15;102634.25;5096222;28;20024;-62
2022/05/09 00:07:55;;;;;;;10.65;3.63;;;;;;;13.55;50.08;102633.34;5096149;28;20115;-62
2022/05/09 00:10:24;;;;;;;11.27;3.53;;;;;;;13.52;50.21;102631.47;5095944;28;20024;-62
2022/05/09 00:12:49;;;;;;;13.30;3.58;;;;;;;13.57;50.19;102626.28;5095852;28;20082;-62
2022/05/09 00:15:16;;;;;;;7.28;3.20;;;;;;;13.53;50.41;102622.69;5095797;28;20024;-62
2022/05/09 00:17:45;;;;;;;8.35;3.10;;;;;;;13.43;50.36;102625.94;5096104;28;20020;-62
2022/05/09 00:20:14;;;;;;;11.10;3.30;;;;;;;13.43;50.77;102628.59;5095758;28;20056;-62
2022/05/09 00:22:51;;;;;;;14.32;3.60;;;;;;;13.43;50.43;102625.03;5095684;28;20024;-62
2022/05/09 00:25:18;;;;;;;12.48;3.55;;;;;;;13.34;50.91;102623.03;5095860;28;20020;-62
2022/05/09 00:27:44;;;;;;;11.00;3.47;;;;;;;13.42;50.75;102623.25;5095572;28;20488;-62
2022/05/09 00:30:10;;;;;;;8.20;3.30;;;;;;;13.45;50.58;102615.38;5095677;28;20028;-62
2022/05/09 00:32:35;;;;;;;8.18;3.40;;;;;;;13.39;50.66;102613.41;5095142;28;20538;-62
2022/05/09 00:35:01;;;;;;;12.88;3.33;;;;;;;13.30;50.74;102610.50;5095402;28;20020;-62
2022/05/09 00:37:26;;;;;;;8.73;3.03;;;;;;;13.31;51.10;102620.28;5095451;28;20129;-62
2022/05/09 00:39:51;;;;;;;10.13;3.58;;;;;;;13.31;51.07;102620.28;5095423;28;20028;-62
2022/05/09 00:42:16;;;;;;;13.57;4.00;;;;;;;13.26;51.17;102621.91;5095346;28;20398;-62
2022/05/09 00:44:42;;;;;;;7.78;3.28;;;;;;;13.24;51.43;102620.97;5095289;28;20113;-62
2022/05/09 00:47:08;;;;;;;9.45;3.50;;;;;;;13.16;51.85;102622.47;5095171;28;20107;-63
2022/05/09 00:49:47;;;;;;;11.73;3.88;;;;;;;13.16;51.03;102617.16;5095079;28;20024;-62
2022/05/09 00:52:36;;;;;;;13.27;3.40;;;;;;;13.21;50.90;102628.81;5095210;28;20039;-62
2022/05/09 00:55:07;;;;;;;10.30;3.70;;;;;;;13.09;51.94;102625.81;5076635;28;20197;-62
2022/05/09 00:57:38;;;;;;;9.95;3.90;;;;;;;13.00;52.38;102615.81;5095031;28;20031;-62
2022/05/09 01:00:11;;;;;;;9.57;3.92;;;;;;;12.96;52.20;102609.50;5094883;28;20534;-62
2022/05/09 01:02:40;;;;;;;11.73;3.70;;;;;;;12.87;52.83;102611.00;5095040;28;20031;-62
2022/05/09 01:05:07;;;;;;;10.27;3.40;;;;;;;12.74;53.66;102613.28;5095007;28;20484;-62
2022/05/09 01:07:32;;;;;;;10.43;3.63;;;;;;;12.62;54.39;102612.91;5094794;28;20028;-62
2022/05/09 01:09:59;;;;;;;8.68;3.30;;;;;;;12.52;54.67;102613.50;5094765;28;20060;-62
2022/05/09 01:12:31;;;;;;;13.15;3.63;;;;;;;12.42;54.65;102612.31;5094533;28;20028;-62
2022/05/09 01:15:06;;;;;;;9.05;3.30;;;;;;;12.43;54.63;102605.25;5094766;28;20024;-62
2022/05/09 01:17:39;;;;;;;9.30;3.50;;;;;;;12.42;54.73;102601.72;5094683;28;20447;-62
2022/05/09 01:20:09;;;;;;;8.45;3.70;;;;;;;12.35;55.47;102598.81;5094605;28;20046;-62
2022/05/09 01:22:37;;;;;;;9.27;3.50;;;;;;;12.32;55.51;102602.25;5094362;28;20060;-62
2022/05/09 01:25:08;;;;;;;8.40;3.42;;;;;;;12.27;55.54;102594.16;5094340;28;20385;-63
2022/05/09 01:27:38;;;;;;;8.98;3.70;;;;;;;12.31;55.67;102592.50;5094961;28;20024;-62
2022/05/09 01:30:19;;;;;;;11.23;3.40;;;;;;;12.26;55.53;102602.06;5094826;28;20028;-62
2022/05/09 01:33:06;;;;;;;11.27;3.35;;;;;;;12.22;55.16;102598.41;5095041;28;20050;-61
2022/05/09 01:35:38;;;;;;;10.43;3.60;;;;;;;12.18;55.76;102599.16;5094218;28;20172;-62
2022/05/09 01:38:14;;;;;;;9.10;3.83;;;;;;;12.09;55.60;102595.34;5094213;28;20054;-62
2022/05/09 01:40:39;;;;;;;7.80;3.40;;;;;;;12.05;55.89;102594.31;5094399;28;20661;-62
2022/05/09 01:43:05;;;;;;;11.68;3.70;;;;;;;11.99;55.81;102591.47;5094082;28;20092;-62
2022/05/09 01:45:31;;;;;;;12.13;3.85;;;;;;;11.99;56.28;102592.38;5094102;28;20496;-62
2022/05/09 01:50:40;;;;;;;9.65;3.38;;;;;;;11.97;56.30;102593.16;5094267;28;20051;-62
2022/05/09 01:53:05;;;;;;;12.75;3.80;;;;;;;11.87;56.81;102591.09;5093853;28;20028;-62
2022/05/09 01:55:31;;;;;;;9.60;4.20;;;;;;;11.72;57.43;102596.69;5091574;28;20044;-62
2022/05/09 01:57:57;;;;;;;13.93;3.42;;;;;;;11.63;57.43;102596.41;5093883;28;20124;-62
2022/05/09 02:00:22;;;;;;;8.15;3.63;;;;;;;11.66;57.36;102602.69;5094063;28;20484;-62
2022/05/09 02:02:47;;;;;;;9.35;3.58;;;;;;;11.64;57.45;102599.09;5093688;28;20024;-62
2022/05/09 02:05:13;;;;;;;7.07;3.30;;;;;;;11.64;57.61;102601.72;5093957;28;20385;-62
2022/05/09 02:07:38;;;;;;;10.15;3.63;;;;;;;11.69;57.78;102591.28;5093782;28;20070;-62
2022/05/09 02:10:04;;;;;;;8.65;3.63;;;;;;;11.77;57.95;102595.09;5093925;28;20020;-62
2022/05/09 02:12:30;;;;;;;6.40;3.22;;;;;;;11.62;57.92;102594.59;5093585;28;20105;-62
2022/05/09 02:14:55;;;;;;;10.30;3.60;;;;;;;11.58;57.40;102595.34;5093592;28;20384;-62
2022/05/09 02:17:20;;;;;;;8.80;3.45;;;;;;;11.52;57.83;102585.44;5093633;28;20016;-62
2022/05/09 02:19:46;;;;;;;13.27;3.67;;;;;;;11.52;57.73;102589.00;5093417;28;20454;-62
2022/05/09 02:22:12;;;;;;;8.68;3.50;;;;;;;11.46;57.66;102595.81;5093525;28;20047;-62
2022/05/09 02:24:41;;;;;;;9.48;3.65;;;;;;;11.44;58.00;102587.81;5093604;28;20059;-61
2022/05/09 02:27:10;;;;;;;11.80;3.55;;;;;;;11.46;57.79;102582.56;5093544;28;20419;-62
2022/05/09 02:29:39;;;;;;;10.88;3.83;;;;;;;11.39;57.97;102597.34;5093412;28;20022;-62
2022/05/09 02:32:06;;;;;;;9.02;3.47;;;;;;;11.30;58.33;102591.72;5093490;28;20032;-63
2022/05/09 02:34:33;;;;;;;10.07;3.55;;;;;;;11.23;58.07;102585.31;5093304;28;20067;-62
2022/05/09 02:36:59;;;;;;;8.93;3.28;;;;;;;11.14;58.27;102584.09;5093256;28;20473;-62
2022/05/09 02:39:24;;;;;;;11.55;3.67;;;;;;;11.14;58.79;102579.69;5093173;28;20109;-62
2022/05/09 02:41:50;;;;;;;9.57;3.53;;;;;;;11.11;58.51;102587.50;5092340;28;20052;-62
2022/05/09 02:44:15;;;;;;;12.07;3.97;;;;;;;11.03;58.52;102573.09;5093323;28;20423;-62
2022/05/09 02:46:42;;;;;;;10.55;3.55;;;;;;;11.13;57.88;102582.25;5093251;28;20103;-62
2022/05/09 02:49:08;;;;;;;7.82;3.33;;;;;;;11.07;57.85;102580.31;5093017;28;20073;-62
2022/05/09 02:51:34;;;;;;;9.32;3.38;;;;;;;11.03;58.17;102586.31;5093255;28;20032;-61
2022/05/09 02:53:59;;;;;;;8.65;3.40;;;;;;;10.97;58.53;102581.72;5093244;28;20396;-62
2022/05/09 02:56:27;;;;;;;9.05;3.80;;;;;;;10.91;58.97;102588.50;5088807;28;20390;-62
2022/05/09 02:58:53;;;;;;;9.48;3.60;;;;;;;10.87;59.07;102584.84;5093152;28;20530;-62
2022/05/09 03:01:19;;;;;;;8.60;3.47;;;;;;;10.85;59.18;102585.66;5093316;28;20027;-62
2022/05/09 03:06:29;;;;;;;8.90;3.60;;;;;;;10.80;58.58;102582.84;5093047;28;20055;-62
2022/05/09 03:08:54;;;;;;;10.25;3.90;;;;;;;10.80;58.81;102571.38;5093025;28;20477;-62
2022/05/09 03:11:20;;;;;;;9.75;3.88;;;;;;;10.87;59.07;102576.00;5092964;28;20024;-62
2022/05/09 03:13:45;;;;;;;11.75;3.60;;;;;;;10.90;58.54;102581.44;5093060;28;20167;-62
2022/05/09 03:16:11;;;;;;;7.10;3.45;;;;;;;10.86;58.51;102571.56;5092952;28;20028;-62
2022/05/09 03:18:37;;;;;;;7.95;3.55;;;;;;;10.82;58.49;102575.84;5092814;28;20150;-62
2022/05/09 03:21:04;;;;;;;9.43;3.80;;;;;;;10.80;58.92;102572.25;5092895;28;20050;-62
2022/05/09 03:23:31;;;;;;;11.52;3.85;;;;;;;10.74;59.45;102567.63;5092793;28;20469;-62
2022/05/09 03:25:57;;;;;;;7.97;3.60;;;;;;;10.72;59.17;102573.72;5092928;28;20020;-62
2022/05/09 03:28:24;;;;;;;8.10;3.50;;;;;;;10.70;59.27;102578.03;5092784;28;20026;-62
2022/05/09 03:30:52;;;;;;;9.90;3.78;;;;;;;10.68;59.27;102564.75;5092823;28;20491;-62
2022/05/09 03:33:20;;;;;;;9.52;3.22;;;;;;;10.50;60.00;102572.00;5092906;28;20066;-62
2022/05/09 03:35:46;;;;;;;8.77;3.58;;;;;;;10.23;60.88;102564.72;5092809;28;20078;-61
2022/05/09 03:38:12;;;;;;;7.88;3.70;;;;;;;10.08;61.56;102565.88;5092645;28;20090;-62
2022/05/09 03:40:39;;;;;;;10.10;3.60;;;;;;;9.98;61.82;102561.97;5092703;28;20032;-62
2022/05/09 03:43:06;;;;;;;8.07;3.40;;;;;;;9.94;62.05;102558.31;5092761;28;20032;-62
2022/05/09 03:45:32;;;;;;;9.30;3.70;;;;;;;9.91;62.17;102555.53;5092798;28;20047;-61
2022/05/09 03:48:03;;;;;;;15.32;4.00;;;;;;;9.94;62.05;102560.94;5092505;28;20027;-62
2022/05/09 03:50:29;;;;;;;7.43;3.25;;;;;;;9.95;62.18;102565.38;5092714;28;20078;-62
2022/05/09 03:52:56;;;;;;;9.02;3.88;;;;;;;10.03;61.49;102563.94;5094657;28;20024;-62
2022/05/09 03:55:21;;;;;;;13.13;3.53;;;;;;;10.13;61.47;102566.97;5095819;28;20035;-62
2022/05/09 03:57:49;;;;;;;9.20;3.88;;;;;;;10.23;60.87;102561.19;5095185;28;20474;-62
2022/05/09 04:00:18;;;;;;;9.93;3.70;;;;;;;10.21;60.96;102558.50;5095564;28;20107;-62
2022/05/09 04:02:46;;;;;;;11.73;3.90;;;;;;;10.20;61.04;102564.63;5095149;28;20161;-62
2022/05/09 04:05:17;;;;;;;9.10;3.70;;;;;;;10.07;61.65;102559.69;5095638;28;20023;-62
2022/05/09 04:07:53;;;;;;;7.75;3.50;;;;;;;10.04;61.16;102555.19;5095320;28;20032;-62
2022/05/09 04:10:26;;;;;;;8.32;3.58;;;;;;;10.01;61.26;102568.25;5095459;28;20170;-62
2022/05/09 04:12:52;;;;;;;9.90;3.67;;;;;;;9.93;61.12;102563.50;5095045;28;20062;-62
2022/05/09 04:18:06;;;;;;;10.50;3.53;;;;;;;9.91;61.21;102559.91;5095315;28;20058;-62
2022/05/09 04:20:35;;;;;;;10.73;4.05;;;;;;;9.95;61.52;102557.44;5095161;28;20028;-62
2022/05/09 04:23:00;;;;;;;11.95;3.70;;;;;;;10.04;61.19;102565.75;5094880;28;20039;-62
2022/05/09 04:25:31;;;;;;;10.80;3.88;;;;;;;10.03;61.31;102565.69;5096456;28;20059;-62
2022/05/09 04:27:58;;;;;;;10.25;3.72;;;;;;;10.07;61.12;102561.44;5096230;28;20149;-62
2022/05/09 04:30:24;;;;;;;9.65;3.63;;;;;;;10.07;61.14;102557.06;5096308;28;20477;-62
2022/05/09 04:32:49;;;;;;;12.38;4.03;;;;;;;10.08;61.91;102550.94;5095472;28;20169;-62
2022/05/09 04:35:19;;;;;;;6.93;3.47;;;;;;;10.16;61.92;102554.78;5094764;28;20038;-62
2022/05/09 04:37:47;;;;;;;12.48;4.03;;;;;;;10.17;62.01;102548.66;5094755;28;20035;-62
2022/05/09 04:40:18;;;;;;;7.32;3.85;;;;;;;10.19;61.90;102546.97;5094570;28;20082;-62
2022/05/09 04:42:44;;;;;;;5.85;3.15;;;;;;;10.19;61.86;102546.97;5094538;28;20053;-62
2022/05/09 04:45:11;;;;;;;8.13;3.50;;;;;;;10.18;62.36;102555.72;5094507;28;20024;-62
2022/05/09 04:47:37;;;;;;;7.63;3.38;;;;;;;10.17;62.57;102547.75;5094616;28;20103;-62
2022/05/09 04:50:03;;;;;;;9.85;3.30;;;;;;;10.16;62.71;102552.13;5094553;28;20178;-62
2022/05/09 04:52:28;;;;;;;8.15;3.58;;;;;;;10.21;62.68;102547.94;5094328;28;20020;-62
2022/05/09 04:54:54;;;;;;;10.80;4.13;;;;;;;10.26;62.69;102546.41;5094317;28;20492;-62
2022/05/09 04:57:19;;;;;;;11.32;4.97;;;;;;;10.30;62.72;102549.16;5094145;28;20040;-62
2022/05/09 04:59:45;;;;;;;8.90;3.70;;;;;;;10.42;62.99;102549.66;5094547;28;20345;-62
2022/05/09 05:02:10;;;;;;;5.95;3.78;;;;;;;10.52;62.38;102550.03;5094453;28;20382;-61
2022/05/09 05:04:36;;;;;;;6.63;3.70;;;;;;;10.60;62.14;102542.41;5093307;28;20073;-62
2022/05/09 05:07:01;;;;;;;15.35;3.90;;;;;;;10.69;62.41;102542.75;5094222;28;20024;-62
2022/05/09 05:09:28;;;;;;;11.38;3.88;;;;;;;10.87;61.95;102545.19;5094067;28;20028;-62
2022/05/09 05:11:53;;;;;;;9.88;3.92;;;;;;;10.96;61.97;102536.69;5093686;28;20468;-62
2022/05/09 05:14:19;;;;;;;11.35;4.30;;;;;;;11.17;60.48;102536.56;5094011;28;20077;-62
2022/05/09 05:16:59;;;;;;;11.43;4.10;;;;;;;11.35;60.95;102537.22;5094247;28;20028;-62
2022/05/09 05:19:35;;;;;;;13.40;4.45;;;;;;;11.55;59.52;102537.88;5094218;28;20028;-63
2022/05/09 05:22:02;;;;;;;12.10;4.70;;;;;;;11.67;59.19;102537.41;5093926;28;20031;-62
2022/05/09 05:24:35;;;;;;;11.07;4.75;;;;;;;11.82;59.07;102532.63;5093896;28;20028;-62
2022/05/09 05:27:00;;;;;;;13.18;4.65;;;;;;;11.92;58.93;102541.78;5093919;28;20028;-62
2022/05/09 05:29:26;;;;;;;13.15;4.80;;;;;;;12.05;59.22;102535.13;5093748;28;20031;-62
2022/05/09 05:31:51;;;;;;;17.65;5.20;;;;;;;12.08;59.02;102541.44;5093600;28;20028;-62
2022/05/09 05:34:17;;;;;;;15.85;5.30;;;;;;;12.18;58.31;102543.50;5093864;28;20016;-62
2022/05/09 05:36:43;;;;;;;16.90;5.45;;;;;;;12.25;58.41;102549.91;5093632;28;20388;-62
2022/05/09 05:39:09;;;;;;;14.80;4.70;;;;;;;12.42;57.88;102553.06;5093411;28;20461;-62
2022/05/09 05:41:35;;;;;;;13.82;5.07;;;;;;;12.54;58.17;102548.13;5093754;28;20100;-62
2022/05/09 05:44:01;;;;;;;15.60;5.03;;;;;;;12.67;56.42;102539.69;5093537;28;20032;-61
2022/05/09 05:46:26;;;;;;;15.52;5.15;;;;;;;12.85;56.44;102542.00;5093610;28;20093;-62
2022/05/09 05:48:54;;;;;;;12.40;5.05;;;;;;;12.98;56.03;102538.84;5093440;28;20024;-62
2022/05/09 05:51:20;;;;;;;13.43;5.13;;;;;;;13.12;55.81;102548.94;5093410;28;20035;-62
2022/05/09 05:53:45;;;;;;;9.68;4.72;;;;;;;13.25;55.29;102545.78;5093169;28;20024;-62
2022/05/09 05:56:11;;;;;;;11.65;4.93;;;;;;;13.33;55.58;102540.69;5093274;28;20579;-62
2022/05/09 05:58:37;;;;;;;15.88;4.70;;;;;;;13.45;54.19;102538.34;5093355;28;20028;-62
2022/05/09 06:01:02;;;;;;;13.43;4.75;;;;;;;13.57;53.42;102538.66;5093245;28;20388;-62
2022/05/09 06:03:27;;;;;;;13.50;4.90;;;;;;;13.73;54.01;102537.28;5093224;28;20449;-62
2022/05/09 06:05:53;;;;;;;17.27;5.30;;;;;;;13.92;52.90;102551.94;5093066;28;20075;-62
2022/05/09 06:08:18;;;;;;;15.65;4.82;;;;;;;14.01;51.96;102541.53;5093123;28;20520;-62
2022/05/09 06:10:44;;;;;;;15.10;4.72;;;;;;;14.12;52.92;102541.75;5092827;28;20051;-62
2022/05/09 06:13:10;;;;;;;16.15;4.78;;;;;;;14.22;52.08;102544.69;5093143;28;20051;-62
2022/05/09 06:15:36;;;;;;;13.05;5.07;;;;;;;14.35;52.36;102544.97;5092927;28;20107;-62
2022/05/09 06:18:09;;;;;;;17.00;4.85;;;;;;;14.47;52.03;102547.88;5093010;28;20023;-62
2022/05/09 06:20:38;;;;;;;11.55;4.82;;;;;;;14.56;51.04;102552.53;5093229;28;20032;-62
2022/05/09 06:23:05;;;;;;;15.50;5.15;;;;;;;14.71;50.47;102536.91;5093072;28;20059;-61
2022/05/09 06:25:34;;;;;;;11.90;5.30;;;;;;;14.87;50.30;102541.69;5092747;28;20063;-62
2022/05/09 06:28:00;;;;;;;14.98;5.05;;;;;;;15.05;49.97;102532.25;5093056;28;20024;-62
2022/05/09 06:30:28;;;;;;;19.20;5.00;;;;;;;15.25;49.47;102536.19;5092912;28;20027;-63
2022/05/09 06:32:55;;;;;;;16.33;4.57;;;;;;;15.50;49.09;102538.44;5092695;28;20062;-62
2022/05/09 06:35:23;;;;;;;15.68;5.03;;;;;;;15.80;48.77;102538.94;5092880;28;20431;-62
2022/05/09 06:37:58;;;;;;;13.23;4.60;;;;;;;16.12;48.57;102536.78;5092495;28;20107;-62
2022/05/09 06:40:24;;;;;;;16.38;4.97;;;;;;;16.28;46.91;102531.72;5092916;28;20016;-62
2022/05/09 06:42:51;;;;;;;14.05;5.03;;;;;;;16.36;46.68;102539.81;5092675;28;20027;-62
2022/05/09 06:45:17;;;;;;;15.98;5.30;;;;;;;16.44;47.09;102534.56;5092779;28;20024;-62
2022/05/09 06:47:47;;;;;;;16.80;5.22;;;;;;;16.67;46.18;102535.78;5092576;28;20461;-62
2022/05/09 06:50:15;;;;;;;12.13;5.13;;;;;;;16.82;45.25;102531.53;5092769;28;20031;-62
2022/05/09 06:52:41;;;;;;;13.90;5.10;;;;;;;17.02;44.88;102530.00;5092314;28;20127;-62
2022/05/09 06:55:10;;;;;;;13.65;4.97;;;;;;;17.22;45.08;102528.44;5092651;28;20032;-62
2022/05/09 06:57:39;;;;;;;13.50;4.97;;;;;;;17.35;43.96;102526.78;5092418;28;20044;-62
2022/05/09 07:00:07;;;;;;;15.32;5.03;;;;;;;17.30;42.78;102533.88;5092516;28;20036;-62
2022/05/09 07:02:32;;;;;;;16.45;5.43;;;;;;;17.37;43.35;102529.47;5092382;28;20111;-62
2022/05/09 07:04:57;;;;;;;16.20;5.50;;;;;;;17.46;43.35;102527.75;5092376;28;20052;-62
2022/05/09 07:07:23;;;;;;;12.75;5.18;;;;;;;17.72;42.26;102527.09;5092309;28;20074;-62
2022/05/09 07:09:50;;;;;;;12.93;4.97;;;;;;;17.97;42.14;102523.75;5092429;28;20427;-62
2022/05/09 07:12:15;;;;;;;12.25;5.20;;;;;;;18.06;42.59;102525.59;5092500;28;20032;-62
2022/05/09 07:14:41;;;;;;;12.80;4.80;;;;;;;17.86;41.60;102513.84;5092604;28;20538;-62
2022/05/09 07:17:06;;;;;;;14.95;5.00;;;;;;;18.08;41.55;102515.81;5092444;28;20078;-62
2022/05/09 07:19:32;;;;;;;12.07;5.28;;;;;;;18.44;41.64;102522.25;5092347;28;20350;-62
2022/05/09 07:21:57;;;;;;;16.25;5.35;;;;;;;18.71;41.23;102517.06;5092221;28;20522;-62
2022/05/09 07:24:23;;;;;;;14.95;5.57;;;;;;;18.95;40.93;102510.00;5092290;28;20078;-62
2022/05/09 07:26:48;;;;;;;15.65;5.38;;;;;;;19.24;39.95;102518.09;5092879;28;20032;-62
2022/05/09 07:29:14;;;;;;;17.52;5.47;;;;;;;19.45;39.41;102517.22;5096163;28;20039;-62
2022/05/09 07:31:39;;;;;;;15.13;5.80;;;;;;;19.40;40.38;102519.91;5096205;28;20035;-61
2022/05/09 07:34:05;;;;;;;10.60;5.15;;;;;;;19.64;39.14;102515.47;5095968;28;20028;-62
2022/05/09 07:36:31;;;;;;;14.23;5.05;;;;;;;19.80;38.65;102519.06;5095931;28;20037;-62
2022/05/09 07:38:56;;;;;;;15.20;5.47;;;;;;;19.87;37.89;102516.38;5095973;28;20031;-62
2022/05/09 07:41:22;;;;;;;11.80;5.07;;;;;;;19.89;38.68;102511.00;5095897;28;20404;-62
2022/05/09 07:43:47;;;;;;;16.33;5.13;;;;;;;19.80;39.02;102513.69;5096002;28;20107;-62
2022/05/09 07:46:13;;;;;;;21.05;5.68;;;;;;;19.56;39.78;102511.84;5095812;28;20112;-62
2022/05/09 07:48:40;;;;;;;17.88;5.38;;;;;;;19.52;39.66;102516.31;5095949;28;20028;-62
2022/05/09 07:51:05;;;;;;;13.20;5.38;;;;;;;19.76;38.95;102511.00;5095835;28;20032;-62
2022/05/09 07:53:33;;;;;;;13.65;5.15;;;;;;;19.80;38.03;102514.56;5095541;28;20032;-62
2022/05/09 07:56:02;;;;;;;13.77;4.78;;;;;;;20.00;37.45;102517.25;5095720;28;20036;-62
2022/05/09 07:58:28;;;;;;;14.40;5.18;;;;;;;20.38;36.92;102519.81;5095867;28;20067;-62
2022/05/09 08:00:58;;;;;;;16.15;5.10;;;;;;;20.78;36.76;102514.31;5095497;28;20432;-62
2022/05/09 08:03:26;;;;;;;11.70;5.07;;;;;;;21.08;36.62;102525.81;5095629;28;20032;-62
2022/05/09 08:05:53;;;;;;;13.85;5.10;;;;;;;21.25;35.66;102516.72;5077464;28;20020;-62
2022/05/09 08:08:19;;;;;;;16.70;5.50;;;;;;;21.47;36.14;102520.19;5095410;28;20107;-62
2022/05/09 08:10:45;;;;;;;13.48;5.40;;;;;;;21.63;34.61;102517.38;5095431;28;20099;-62
2022/05/09 08:13:13;;;;;;;16.15;5.82;;;;;;;21.73;35.70;102516.38;5095231;28;20042;-62
2022/05/09 08:15:40;;;;;;;13.82;5.25;;;;;;;22.06;34.93;102514.28;5095385;28;20048;-62
2022/05/09 08:18:05;;;;;;;12.50;5.45;;;;;;;22.27;34.32;102510.47;5095173;28;20054;-63
2022/05/09 08:20:34;;;;;;;15.38;5.30;;;;;;;22.56;33.70;102515.53;5095330;28;20024;-62
2022/05/09 08:23:11;;;;;;;14.68;4.90;;;;;;;22.78;33.95;102517.03;5095187;28;20106;-62
2022/05/09 08:25:39;;;;;;;20.80;5.50;;;;;;;23.02;33.42;102510.44;5095390;28;20020;-62
2022/05/09 08:28:07;;;;;;;11.68;5.20;;;;;;;23.01;32.58;102510.47;5095233;28;20020;-62
2022/05/09 08:30:34;;;;;;;12.13;5.38;;;;;;;23.17;33.29;102510.22;5095126;28;20024;-62
2022/05/09 08:33:07;;;;;;;16.95;5.55;;;;;;;23.41;32.38;102506.22;5095011;28;20056;-62
2022/05/09 08:35:33;;;;;;;16.38;5.18;;;;;;;23.62;32.32;102502.28;5094863;28;20111;-62
2022/05/09 08:37:58;;;;;;;10.77;5.10;;;;;;;23.78;31.55;102510.16;5094923;28;20154;-62
2022/05/09 08:40:36;;;;;;;11.25;5.18;;;;;;;24.03;30.60;102499.81;5095064;28;20024;-62
2022/05/09 08:43:29;;;;;;;14.65;5.13;;;;;;;24.39;30.89;102507.22;5094895;28;20392;-62
2022/05/09 08:46:11;;;;;;;16.15;5.38;;;;;;;24.53;30.46;102511.44;5094754;28;20031;-63
2022/05/09 08:49:07;;;;;;;16.08;5.07;;;;;;;24.64;29.72;102510.28;5094866;28;20027;-62
2022/05/09 08:51:43;;;;;;;13.13;5.38;;;;;;;24.84;30.30;102506.25;5094751;28;20036;-62
2022/05/09 08:54:14;;;;;;;11.13;5.05;;;;;;;24.71;29.84;102506.53;5094596;28;20106;-62
2022/05/09 08:56:42;;;;;;;14.25;4.90;;;;;;;24.86;29.15;102508.00;5094319;28;20032;-62
2022/05/09 08:59:12;;;;;;;13.52;5.40;;;;;;;24.83;30.15;102499.94;5094577;28;20040;-63
2022/05/09 09:01:54;;;;;;;15.18;4.95;;;;;;;25.22;29.93;102494.56;5094389;28;20059;-62
2022/05/09 09:04:30;;;;;;;11.65;5.13;;;;;;;25.33;29.83;102494.31;5094467;28;20046;-62
2022/05/09 09:07:12;;;;;;;12.88;5.15;;;;;;;25.41;29.01;102498.63;5094550;28;20417;-63
2022/05/09 09:09:46;;;;;;;10.80;4.82;;;;;;;25.41;28.40;102487.78;5094357;28;20480;-62
2022/05/09 09:12:28;;;;;;;14.50;5.00;;;;;;;25.67;27.95;102483.53;5094372;28;20459;-61
2022/05/09 09:14:59;;;;;;;16.13;4.70;;;;;;;25.75;26.19;102486.91;5094396;28;20099;-62
2022/05/09 09:17:43;;;;;;;13.07;4.68;;;;;;;26.14;26.33;102475.94;5094148;28;20074;-64
2022/05/09 09:20:48;;;;;;;11.52;4.60;;;;;;;26.42;26.67;102478.72;5094142;28;20078;-63
2022/05/09 09:23:36;;;;;;;10.80;4.47;;;;;;;26.52;25.99;102480.28;4992278;28;20077;-62
2022/05/09 09:26:03;;;;;;;14.02;4.55;;;;;;;26.58;25.45;102468.38;4992348;28;20450;-63
2022/05/09 09:28:47;;;;;;;10.50;4.05;;;;;;;26.71;25.17;102478.78;4992472;28;20523;-62
2022/05/09 09:31:16;;;;;;;13.57;4.38;;;;;;;26.79;24.71;102466.81;4976009;28;20034;-63
2022/05/09 09:33:52;;;;;;;12.77;4.88;;;;;;;26.89;25.94;102465.56;4992101;28;20078;-62
2022/05/09 09:36:20;;;;;;;10.30;4.57;;;;;;;27.15;24.90;102464.75;4992229;28;20085;-64
2022/05/09 09:38:53;;;;;;;11.75;4.90;;;;;;;27.36;24.96;102461.34;4992028;28;20496;-63
2022/05/09 09:41:23;;;;;;;13.40;5.18;;;;;;;27.54;25.05;102468.00;4992213;28;20034;-62
2022/05/09 09:44:07;;;;;;;12.55;5.03;;;;;;;27.61;25.16;102460.50;4991980;28;20176;-62
2022/05/09 09:46:32;;;;;;;16.20;5.20;;;;;;;27.64;23.79;102465.84;4992226;28;20051;-63
2022/05/09 09:49:07;;;;;;;13.88;4.80;;;;;;;27.61;24.70;102457.78;4991762;28;20038;-63
2022/05/09 09:51:45;;;;;;;12.20;4.85;;;;;;;27.86;25.21;102456.00;4991589;28;20103;-63
2022/05/09 09:54:12;;;;;;;12.85;4.53;;;;;;;28.04;23.81;102450.84;4991737;28;20118;-63
2022/05/09 09:56:38;;;;;;;10.23;4.32;;;;;;;28.28;23.31;102457.19;4991789;28;20050;-63
2022/05/09 09:59:09;;;;;;;15.10;4.60;;;;;;;28.41;23.71;102456.69;5058210;28;20035;-63
2022/05/09 10:01:35;;;;;;;10.50;4.63;;;;;;;28.51;23.35;102445.47;5093360;28;20063;-63
2022/05/09 10:04:27;;;;;;;11.73;4.90;;;;;;;28.59;23.92;102443.31;5093370;28;20055;-62
2022/05/09 10:07:05;;;;;;;10.82;4.90;;;;;;;28.69;22.66;102440.19;5082322;28;20042;-63
2022/05/09 10:09:59;;;;;;;12.63;4.57;;;;;;;28.79;23.75;102440.69;5093242;28;20428;-63
2022/05/09 10:12:30;;;;;;;13.25;5.03;;;;;;;28.82;23.36;102429.69;4991441;28;20046;-63
2022/05/09 10:14:56;;;;;;;13.70;4.90;;;;;;;28.89;22.80;102428.47;4991602;28;20404;-63
2022/05/09 10:17:22;;;;;;;16.50;5.30;;;;;;;29.08;22.04;102428.66;4991757;28;20081;-63
2022/05/09 10:19:48;;;;;;;13.32;4.60;;;;;;;28.98;23.24;102427.25;4991615;28;20034;-63
2022/05/09 10:25:07;;;;;;;13.45;4.88;;;;;;;29.25;23.77;102413.41;4991900;28;20096;-63
2022/05/09 10:27:33;;;;;;;13.63;5.15;;;;;;;28.93;22.48;102413.81;4991982;28;20031;-63
2022/05/09 10:30:08;;;;;;;10.02;4.20;;;;;;;29.39;22.52;102422.78;4992688;28;20366;-63
2022/05/09 10:32:52;;;;;;;10.38;4.10;;;;;;;29.60;22.76;102421.00;4991784;28;20085;-63
2022/05/09 10:35:37;;;;;;;10.65;4.05;;;;;;;29.44;21.53;102414.41;4991241;28;20456;-63
2022/05/09 10:38:20;;;;;;;9.15;4.07;;;;;;;29.71;21.29;102406.00;4991339;28;20524;-63
2022/05/09 10:40:50;;;;;;;10.13;4.00;;;;;;;29.30;21.79;102404.13;4991422;28;20088;-63
2022/05/09 10:43:28;;;;;;;13.30;4.05;;;;;;;29.40;22.81;102402.75;4991360;28;20060;-63
2022/05/09 10:45:54;;;;;;;7.43;3.40;;;;;;;29.77;21.78;102401.16;4991123;28;20364;-63
2022/05/09 10:48:29;;;;;;;8.13;3.72;;;;;;;29.96;21.93;102409.38;4998263;28;20502;-63
2022/05/09 10:51:04;;;;;;;10.63;4.40;;;;;;;29.88;21.90;102395.22;5093182;28;20028;-63
2022/05/09 10:53:59;;;;;;;9.98;4.38;;;;;;;30.07;21.24;102398.00;5092485;28;20032;-63
2022/05/09 10:56:43;;;;;;;10.65;4.88;;;;;;;29.66;21.80;102395.31;5092324;28;20044;-63
2022/05/09 10:59:12;;;;;;;8.90;4.53;;;;;;;29.22;21.63;102394.50;5091836;28;20103;-63
2022/05/09 11:01:44;;;;;;;9.60;4.47;;;;;;;29.19;22.26;102385.50;5092223;28;20027;-64
2022/05/09 11:04:12;;;;;;;10.05;4.40;;;;;;;29.63;20.95;102388.16;5095309;28;20145;-63
2022/05/09 11:06:56;;;;;;;9.85;4.22;;;;;;;29.74;21.52;102389.53;5095355;28;20526;-64
2022/05/09 11:09:41;;;;;;;8.77;4.20;;;;;;;29.33;21.94;102384.91;5095213;28;20485;-63
2022/05/09 11:12:14;;;;;;;8.80;4.72;;;;;;;29.43;22.22;102374.50;5095374;28;20027;-63
2022/05/09 11:15:04;;;;;;;15.20;4.55;;;;;;;29.64;22.78;102372.72;5095236;28;20055;-63
2022/05/09 11:18:00;;;;;;;10.20;4.43;;;;;;;30.15;21.93;102357.66;5095300;28;20032;-63
2022/05/09 11:20:31;;;;;;;12.20;4.50;;;;;;;30.17;21.42;102369.34;5095101;28;20171;-63
2022/05/09 11:23:25;;;;;;;9.60;4.53;;;;;;;30.44;21.99;102370.75;5094983;28;20024;-60
2022/05/09 11:26:09;;;;;;;8.40;4.57;;;;;;;30.59;20.23;102362.78;5094895;28;20036;-61
2022/05/09 11:28:36;;;;;;;8.80;4.20;;;;;;;30.62;20.63;102360.78;5095311;28;20030;-60
2022/05/09 11:31:04;;;;;;;13.88;4.55;;;;;;;30.35;20.76;102359.41;5094851;28;20028;-60
2022/05/09 11:33:48;;;;;;;9.13;4.72;;;;;;;30.30;20.52;102353.28;5094958;28;20094;-60
2022/05/09 11:36:44;;;;;;;11.57;4.60;;;;;;;30.52;21.18;102345.81;5094623;28;20032;-61
2022/05/09 11:39:23;;;;;;;10.45;4.65;;;;;;;30.48;20.48;102356.97;5094888;28;20024;-60
2022/05/09 11:43:27;;;;;;;9.55;4.88;;;;;;;30.58;20.54;102340.09;5094717;28;20084;-60